createdAt,value
2023-02-27T00:00:27.668Z,61.00
2023-02-27T00:01:28.108Z,61.11
2023-02-27T00:02:28.245Z,61.11
2023-02-27T00:03:28.605Z,61.11
2023-02-27T00:04:29.620Z,61.00
2023-02-27T00:05:29.050Z,61.00
2023-02-27T00:06:29.386Z,61.11
2023-02-27T00:07:29.966Z,61.00
2023-02-27T00:08:30.024Z,60.90
2023-02-27T00:09:30.216Z,60.90
2023-02-27T00:10:30.521Z,60.80
2023-02-27T00:11:30.786Z,60.90
2023-02-27T00:12:31.068Z,60.90
2023-02-27T00:13:31.384Z,61.00
2023-02-27T00:14:31.663Z,60.97
2023-02-27T00:15:31.976Z,60.87
2023-02-27T00:16:32.294Z,60.87
2023-02-27T00:17:32.606Z,60.80
2023-02-27T00:18:32.841Z,61.00
2023-02-27T00:19:33.107Z,61.32
2023-02-27T00:20:33.457Z,61.32
2023-02-27T00:21:36.463Z,61.32
2023-02-27T00:22:33.950Z,61.11
2023-02-27T00:23:34.216Z,61.11
2023-02-27T00:24:34.529Z,61.32
2023-02-27T00:25:34.861Z,61.42
2023-02-27T00:26:35.161Z,61.42
2023-02-27T00:27:35.453Z,61.32
2023-02-27T00:28:35.748Z,61.52
2023-02-27T00:29:36.028Z,61.52
2023-02-27T00:30:36.371Z,61.42
2023-02-27T00:31:36.689Z,61.42
2023-02-27T00:32:37.049Z,61.42
2023-02-27T00:33:37.211Z,61.42
2023-02-27T00:34:37.535Z,61.66
2023-02-27T00:35:37.865Z,61.66
2023-02-27T00:36:38.166Z,61.63
2023-02-27T00:37:38.435Z,61.63
2023-02-27T00:38:39.025Z,61.63
2023-02-27T00:39:39.117Z,61.66
2023-02-27T00:40:39.322Z,61.66
2023-02-27T00:41:39.623Z,61.76
2023-02-27T00:42:40.176Z,61.73
2023-02-27T00:43:40.206Z,61.73
2023-02-27T00:44:40.501Z,61.66
2023-02-27T00:45:40.848Z,61.63
2023-02-27T00:46:41.202Z,61.52
2023-02-27T00:47:41.420Z,61.66
2023-02-27T00:48:41.721Z,61.76
2023-02-27T00:49:42.014Z,61.73
2023-02-27T00:50:42.153Z,61.63
2023-02-27T00:51:42.474Z,61.63
2023-02-27T00:52:42.754Z,61.66
2023-02-27T00:53:43.009Z,61.63
2023-02-27T00:54:43.383Z,61.76
2023-02-27T00:55:43.691Z,61.87
2023-02-27T00:56:44.033Z,61.76
2023-02-27T00:57:44.250Z,61.76
2023-02-27T00:58:44.560Z,61.66
2023-02-27T00:59:44.825Z,61.66
2023-02-27T01:00:45.118Z,61.87
2023-02-27T01:01:45.436Z,61.76
2023-02-27T01:02:45.796Z,61.87
2023-02-27T01:03:45.948Z,61.76
2023-02-27T01:04:46.285Z,61.76
2023-02-27T01:05:46.574Z,61.97
2023-02-27T01:06:46.921Z,61.87
2023-02-27T01:07:47.247Z,62.00
2023-02-27T01:08:47.528Z,62.10
2023-02-27T01:09:47.826Z,62.21
2023-02-27T01:10:48.137Z,62.07
2023-02-27T01:11:48.418Z,62.00
2023-02-27T01:12:48.794Z,62.10
2023-02-27T01:13:49.183Z,62.21
2023-02-27T01:14:49.452Z,62.10
2023-02-27T01:15:49.603Z,62.10
2023-02-27T01:16:49.878Z,62.21
2023-02-27T01:17:50.453Z,62.21
2023-02-27T01:18:50.501Z,62.31
2023-02-27T01:19:50.793Z,62.31
2023-02-27T01:20:51.888Z,62.34
2023-02-27T01:21:51.411Z,62.31
2023-02-27T01:22:51.695Z,62.31
2023-02-27T01:23:51.982Z,62.31
2023-02-27T01:24:52.323Z,62.21
2023-02-27T01:25:52.647Z,62.21
2023-02-27T01:26:53.055Z,62.21
2023-02-27T01:27:53.221Z,62.41
2023-02-27T01:28:53.538Z,62.52
2023-02-27T01:29:53.817Z,62.52
2023-02-27T01:30:55.042Z,62.41
2023-02-27T01:31:54.583Z,62.41
2023-02-27T01:32:54.779Z,62.52
2023-02-27T01:33:55.081Z,62.52
2023-02-27T01:34:55.449Z,62.31
2023-02-27T01:35:55.690Z,62.10
2023-02-27T01:36:55.848Z,62.24
2023-02-27T01:37:56.204Z,62.34
2023-02-27T01:38:56.475Z,62.34
2023-02-27T01:39:56.746Z,62.34
2023-02-27T01:40:57.075Z,62.45
2023-02-27T01:41:57.358Z,62.45
2023-02-27T01:42:57.637Z,62.55
2023-02-27T01:43:57.954Z,62.45
2023-02-27T01:44:58.247Z,62.34
2023-02-27T01:45:58.525Z,62.55
2023-02-27T01:46:58.847Z,62.65
2023-02-27T01:47:59.149Z,62.55
2023-02-27T01:48:59.729Z,62.65
2023-02-27T01:49:59.705Z,62.65
2023-02-27T01:51:00.026Z,62.65
2023-02-27T01:52:01.062Z,62.45
2023-02-27T01:53:00.860Z,62.45
2023-02-27T01:54:00.880Z,62.45
2023-02-27T01:55:01.165Z,62.45
2023-02-27T01:56:01.464Z,62.45
2023-02-27T01:57:01.767Z,62.45
2023-02-27T01:58:02.072Z,62.55
2023-02-27T01:59:02.427Z,62.55
2023-02-27T02:00:02.648Z,62.45
2023-02-27T02:01:03.003Z,62.45
2023-02-27T02:02:03.229Z,62.34
2023-02-27T02:03:03.582Z,62.45
2023-02-27T02:04:03.751Z,62.34
2023-02-27T02:05:04.096Z,62.13
2023-02-27T02:06:04.422Z,62.13
2023-02-27T02:07:04.743Z,62.13
2023-02-27T02:08:05.018Z,62.34
2023-02-27T02:09:05.336Z,62.24
2023-02-27T02:10:05.671Z,62.24
2023-02-27T02:11:05.958Z,62.24
2023-02-27T02:12:06.233Z,62.24
2023-02-27T02:13:06.591Z,62.24
2023-02-27T02:14:06.932Z,62.24
2023-02-27T02:15:07.111Z,62.13
2023-02-27T02:16:07.377Z,62.48
2023-02-27T02:17:07.733Z,62.58
2023-02-27T02:18:08.040Z,62.68
2023-02-27T02:19:08.313Z,62.68
2023-02-27T02:20:08.621Z,62.58
2023-02-27T02:21:08.933Z,62.48
2023-02-27T02:22:09.247Z,62.34
2023-02-27T02:23:09.523Z,62.24
2023-02-27T02:24:09.917Z,62.13
2023-02-27T02:25:10.139Z,62.02
2023-02-27T02:26:11.173Z,61.92
2023-02-27T02:27:10.784Z,62.13
2023-02-27T02:28:11.389Z,62.05
2023-02-27T02:29:11.371Z,62.26
2023-02-27T02:30:11.693Z,62.24
2023-02-27T02:31:13.779Z,62.16
2023-02-27T02:32:12.250Z,62.26
2023-02-27T02:33:12.555Z,62.37
2023-02-27T02:34:12.827Z,62.48
2023-02-27T02:35:13.185Z,62.34
2023-02-27T02:36:13.452Z,62.34
2023-02-27T02:37:13.771Z,62.48
2023-02-27T02:38:14.052Z,62.48
2023-02-27T02:39:14.386Z,62.48
2023-02-27T02:40:14.725Z,62.58
2023-02-27T02:41:14.999Z,62.48
2023-02-27T02:42:15.275Z,62.58
2023-02-27T02:43:15.664Z,62.58
2023-02-27T02:44:15.783Z,62.58
2023-02-27T02:45:16.175Z,62.58
2023-02-27T02:46:16.558Z,62.37
2023-02-27T02:47:16.813Z,62.37
2023-02-27T02:48:17.096Z,62.26
2023-02-27T02:49:17.385Z,62.26
2023-02-27T02:50:17.652Z,62.26
2023-02-27T02:51:17.955Z,62.26
2023-02-27T02:52:18.306Z,62.16
2023-02-27T02:53:19.054Z,62.26
2023-02-27T02:54:18.798Z,62.05
2023-02-27T02:55:19.064Z,62.05
2023-02-27T02:56:19.400Z,62.05
2023-02-27T02:57:19.719Z,62.16
2023-02-27T02:58:19.989Z,62.16
2023-02-27T02:59:25.454Z,62.16
2023-02-27T03:00:20.607Z,62.16
2023-02-27T03:01:22.605Z,61.95
2023-02-27T03:02:22.756Z,61.95
2023-02-27T03:03:21.567Z,61.85
2023-02-27T03:04:21.730Z,61.85
2023-02-27T03:05:22.045Z,61.85
2023-02-27T03:06:22.272Z,61.85
2023-02-27T03:07:22.621Z,61.85
2023-02-27T03:08:22.822Z,61.95
2023-02-27T03:09:23.107Z,61.95
2023-02-27T03:10:23.432Z,62.05
2023-02-27T03:11:23.715Z,62.05
2023-02-27T03:12:24.033Z,62.05
2023-02-27T03:13:24.336Z,62.26
2023-02-27T03:14:24.553Z,62.37
2023-02-27T03:15:24.879Z,62.37
2023-02-27T03:16:25.184Z,62.48
2023-02-27T03:17:25.536Z,62.37
2023-02-27T03:18:25.854Z,62.37
2023-02-27T03:19:26.190Z,62.26
2023-02-27T03:20:26.480Z,62.26
2023-02-27T03:21:27.053Z,62.19
2023-02-27T03:22:27.105Z,62.40
2023-02-27T03:23:27.399Z,62.37
2023-02-27T03:24:27.692Z,62.40
2023-02-27T03:25:28.035Z,62.37
2023-02-27T03:26:28.209Z,62.26
2023-02-27T03:27:28.551Z,62.19
2023-02-27T03:28:28.828Z,62.05
2023-02-27T03:29:29.125Z,62.19
2023-02-27T03:30:29.433Z,62.40
2023-02-27T03:31:30.078Z,62.37
2023-02-27T03:32:29.997Z,62.37
2023-02-27T03:33:30.190Z,62.26
2023-02-27T03:34:30.583Z,61.95
2023-02-27T03:35:30.777Z,62.05
2023-02-27T03:36:31.059Z,62.29
2023-02-27T03:37:31.828Z,62.40
2023-02-27T03:38:31.741Z,62.71
2023-02-27T03:39:31.946Z,62.50
2023-02-27T03:40:32.214Z,62.29
2023-02-27T03:41:32.515Z,62.08
2023-02-27T03:42:32.816Z,62.08
2023-02-27T03:43:33.052Z,62.19
2023-02-27T03:44:33.410Z,62.40
2023-02-27T03:45:33.595Z,62.29
2023-02-27T03:46:33.901Z,62.19
2023-02-27T03:47:34.229Z,62.19
2023-02-27T03:48:34.516Z,62.19
2023-02-27T03:49:34.820Z,62.29
2023-02-27T03:50:35.131Z,62.08
2023-02-27T03:51:35.413Z,61.98
2023-02-27T03:52:35.714Z,62.08
2023-02-27T03:53:36.012Z,62.19
2023-02-27T03:54:36.287Z,61.98
2023-02-27T03:55:36.698Z,61.88
2023-02-27T03:56:36.936Z,61.88
2023-02-27T03:57:37.093Z,61.77
2023-02-27T03:58:37.375Z,61.88
2023-02-27T03:59:37.713Z,62.08
2023-02-27T04:00:38.022Z,61.88
2023-02-27T04:01:38.342Z,61.88
2023-02-27T04:02:38.680Z,61.88
2023-02-27T04:03:38.997Z,61.77
2023-02-27T04:04:39.275Z,61.88
2023-02-27T04:05:39.601Z,61.98
2023-02-27T04:06:39.871Z,62.08
2023-02-27T04:07:40.233Z,62.08
2023-02-27T04:08:40.478Z,61.88
2023-02-27T04:09:40.800Z,61.88
2023-02-27T04:10:41.115Z,62.08
2023-02-27T04:11:43.236Z,62.19
2023-02-27T04:12:41.594Z,62.29
2023-02-27T04:13:42.440Z,62.08
2023-02-27T04:14:43.819Z,61.98
2023-02-27T04:15:44.446Z,62.08
2023-02-27T04:16:42.759Z,61.98
2023-02-27T04:17:43.040Z,61.88
2023-02-27T04:18:43.314Z,61.77
2023-02-27T04:19:43.658Z,61.98
2023-02-27T04:20:44.006Z,61.98
2023-02-27T04:21:44.319Z,61.98
2023-02-27T04:22:44.575Z,61.88
2023-02-27T04:23:44.846Z,61.66
2023-02-27T04:24:45.108Z,61.66
2023-02-27T04:25:45.482Z,61.66
2023-02-27T04:26:45.655Z,61.66
2023-02-27T04:27:46.003Z,61.66
2023-02-27T04:28:46.260Z,61.77
2023-02-27T04:29:46.610Z,61.66
2023-02-27T04:30:46.954Z,61.66
2023-02-27T04:31:47.293Z,61.66
2023-02-27T04:32:47.538Z,61.77
2023-02-27T04:33:47.692Z,61.77
2023-02-27T04:34:47.949Z,61.77
2023-02-27T04:35:48.317Z,61.77
2023-02-27T04:36:48.629Z,61.77
2023-02-27T04:37:48.943Z,61.77
2023-02-27T04:38:49.194Z,61.88
2023-02-27T04:39:49.538Z,61.98
2023-02-27T04:40:49.780Z,62.19
2023-02-27T04:41:50.079Z,62.08
2023-02-27T04:42:50.370Z,62.08
2023-02-27T04:43:50.666Z,61.98
2023-02-27T04:44:51.001Z,61.98
2023-02-27T04:45:51.229Z,61.88
2023-02-27T04:46:51.483Z,61.98
2023-02-27T04:47:51.775Z,61.98
2023-02-27T04:48:52.157Z,61.88
2023-02-27T04:49:52.383Z,61.98
2023-02-27T04:50:52.538Z,61.98
2023-02-27T04:51:52.809Z,61.98
2023-02-27T04:52:53.070Z,61.98
2023-02-27T04:53:53.422Z,61.98
2023-02-27T04:54:53.725Z,61.98
2023-02-27T04:55:54.109Z,61.98
2023-02-27T04:56:54.317Z,62.11
2023-02-27T04:57:54.508Z,62.08
2023-02-27T04:58:54.826Z,62.01
2023-02-27T04:59:55.171Z,62.08
2023-02-27T05:00:55.302Z,62.11
2023-02-27T05:01:55.752Z,62.11
2023-02-27T05:02:55.878Z,62.01
2023-02-27T05:03:56.206Z,62.11
2023-02-27T05:04:56.499Z,62.22
2023-02-27T05:05:56.846Z,62.32
2023-02-27T05:06:57.143Z,62.32
2023-02-27T05:07:57.462Z,62.32
2023-02-27T05:08:57.719Z,62.29
2023-02-27T05:09:58.089Z,62.32
2023-02-27T05:10:58.372Z,62.22
2023-02-27T05:11:58.790Z,62.22
2023-02-27T05:12:59.013Z,62.22
2023-02-27T05:13:59.309Z,62.11
2023-02-27T05:14:59.765Z,62.01
2023-02-27T05:16:00.030Z,62.01
2023-02-27T05:17:00.258Z,62.11
2023-02-27T05:18:00.610Z,62.01
2023-02-27T05:19:00.815Z,61.98
2023-02-27T05:20:01.479Z,62.11
2023-02-27T05:21:01.482Z,62.22
2023-02-27T05:22:01.767Z,62.22
2023-02-27T05:23:02.056Z,62.22
2023-02-27T05:24:02.631Z,62.22
2023-02-27T05:25:02.627Z,62.32
2023-02-27T05:26:02.937Z,62.43
2023-02-27T05:27:03.244Z,62.53
2023-02-27T05:28:03.548Z,62.53
2023-02-27T05:29:03.869Z,62.63
2023-02-27T05:30:04.219Z,62.63
2023-02-27T05:31:04.789Z,62.87
2023-02-27T05:32:04.935Z,62.77
2023-02-27T05:33:05.166Z,62.63
2023-02-27T05:34:05.450Z,62.53
2023-02-27T05:35:05.710Z,62.53
2023-02-27T05:36:05.979Z,62.53
2023-02-27T05:37:06.252Z,62.53
2023-02-27T05:38:06.696Z,62.53
2023-02-27T05:39:06.844Z,62.53
2023-02-27T05:40:07.192Z,62.32
2023-02-27T05:41:09.251Z,62.43
2023-02-27T05:42:07.802Z,62.43
2023-02-27T05:43:08.077Z,62.32
2023-02-27T05:44:08.329Z,62.43
2023-02-27T05:45:08.501Z,62.43
2023-02-27T05:46:08.976Z,62.43
2023-02-27T05:47:09.201Z,62.43
2023-02-27T05:48:09.488Z,62.43
2023-02-27T05:49:09.668Z,62.56
2023-02-27T05:50:10.037Z,62.77
2023-02-27T05:51:10.291Z,62.87
2023-02-27T05:52:10.566Z,62.98
2023-02-27T05:53:11.853Z,63.18
2023-02-27T05:54:11.062Z,63.40
2023-02-27T05:55:11.417Z,63.40
2023-02-27T05:56:12.368Z,63.50
2023-02-27T05:57:11.765Z,63.16
2023-02-27T05:58:12.150Z,63.18
2023-02-27T05:59:12.545Z,63.26
2023-02-27T06:00:12.621Z,63.16
2023-02-27T06:01:12.877Z,63.16
2023-02-27T06:02:13.206Z,63.16
2023-02-27T06:03:14.139Z,63.37
2023-02-27T06:04:13.737Z,63.26
2023-02-27T06:05:13.923Z,63.47
2023-02-27T06:06:14.351Z,63.47
2023-02-27T06:07:14.576Z,63.26
2023-02-27T06:08:14.845Z,63.16
2023-02-27T06:09:15.056Z,63.06
2023-02-27T06:10:15.283Z,63.26
2023-02-27T06:11:15.969Z,62.84
2023-02-27T06:12:15.846Z,62.95
2023-02-27T06:13:16.256Z,62.63
2023-02-27T06:14:16.275Z,62.63
2023-02-27T06:15:16.536Z,62.63
2023-02-27T06:16:16.906Z,62.63
2023-02-27T06:17:17.158Z,62.84
2023-02-27T06:18:17.478Z,62.74
2023-02-27T06:19:17.707Z,62.77
2023-02-27T06:20:18.058Z,62.87
2023-02-27T06:21:18.247Z,62.98
2023-02-27T06:22:18.602Z,62.98
2023-02-27T06:23:18.898Z,63.08
2023-02-27T06:24:20.359Z,63.40
2023-02-27T06:25:19.499Z,63.18
2023-02-27T06:26:19.721Z,62.98
2023-02-27T06:27:19.946Z,63.26
2023-02-27T06:28:20.320Z,63.47
2023-02-27T06:29:20.546Z,63.37
2023-02-27T06:30:20.968Z,63.06
2023-02-27T06:31:21.066Z,63.06
2023-02-27T06:32:21.386Z,62.87
2023-02-27T06:33:21.564Z,62.74
2023-02-27T06:34:22.125Z,62.74
2023-02-27T06:35:22.025Z,62.84
2023-02-27T06:36:23.061Z,62.95
2023-02-27T06:37:22.560Z,62.95
2023-02-27T06:38:23.103Z,62.74
2023-02-27T06:39:24.712Z,62.95
2023-02-27T06:40:23.361Z,62.77
2023-02-27T06:41:23.603Z,62.87
2023-02-27T06:42:23.857Z,62.74
2023-02-27T06:43:24.171Z,62.95
2023-02-27T06:44:24.432Z,62.87
2023-02-27T06:45:24.684Z,62.98
2023-02-27T06:46:25.307Z,63.08
2023-02-27T06:47:25.430Z,62.74
2023-02-27T06:48:25.493Z,62.63
2023-02-27T06:49:25.742Z,62.84
2023-02-27T06:50:26.008Z,62.74
2023-02-27T06:51:26.240Z,62.53
2023-02-27T06:52:26.536Z,62.63
2023-02-27T06:53:26.782Z,62.87
2023-02-27T06:54:27.095Z,62.98
2023-02-27T06:55:27.328Z,63.08
2023-02-27T06:56:27.855Z,63.26
2023-02-27T06:57:27.861Z,62.84
2023-02-27T06:58:28.126Z,62.63
2023-02-27T06:59:28.795Z,62.74
2023-02-27T07:00:28.800Z,62.66
2023-02-27T07:01:29.029Z,62.77
2023-02-27T07:02:29.273Z,62.87
2023-02-27T07:03:29.542Z,62.87
2023-02-27T07:04:29.857Z,62.98
2023-02-27T07:05:30.213Z,63.18
2023-02-27T07:07:32.240Z,63.08
2023-02-27T07:07:35.453Z,63.18
2023-02-27T07:08:31.890Z,63.18
2023-02-27T07:09:31.973Z,63.29
2023-02-27T07:10:31.325Z,63.29
2023-02-27T07:11:31.607Z,63.40
2023-02-27T07:12:31.866Z,63.60
2023-02-27T07:13:32.854Z,63.71
2023-02-27T07:14:32.438Z,63.60
2023-02-27T07:15:32.983Z,63.60
2023-02-27T07:16:33.000Z,63.40
2023-02-27T07:17:33.677Z,63.08
2023-02-27T07:18:33.579Z,63.40
2023-02-27T07:19:33.798Z,63.29
2023-02-27T07:20:34.044Z,63.18
2023-02-27T07:21:34.339Z,63.16
2023-02-27T07:22:34.559Z,63.16
2023-02-27T07:23:34.834Z,63.16
2023-02-27T07:24:35.081Z,63.06
2023-02-27T07:25:35.422Z,63.02
2023-02-27T07:26:35.744Z,62.71
2023-02-27T07:27:35.958Z,63.02
2023-02-27T07:28:36.344Z,62.71
2023-02-27T07:29:36.524Z,62.60
2023-02-27T07:30:36.785Z,62.29
2023-02-27T07:31:37.192Z,61.85
2023-02-27T07:32:37.247Z,61.30
2023-02-27T07:33:37.737Z,60.41
2023-02-27T07:34:37.769Z,59.65
2023-02-27T07:35:38.061Z,59.10
2023-02-27T07:36:38.300Z,58.47
2023-02-27T07:37:38.549Z,57.61
2023-02-27T07:38:38.919Z,57.20
2023-02-27T07:39:39.113Z,56.76
2023-02-27T07:40:39.385Z,56.44
2023-02-27T07:41:39.637Z,56.31
2023-02-27T07:42:39.895Z,55.98
2023-02-27T07:43:40.131Z,55.32
2023-02-27T07:44:40.587Z,54.60
2023-02-27T07:45:40.768Z,54.49
2023-02-27T07:46:41.176Z,54.26
2023-02-27T07:47:41.386Z,53.95
2023-02-27T07:48:42.509Z,53.72
2023-02-27T07:49:41.911Z,53.30
2023-02-27T07:50:42.251Z,53.09
2023-02-27T07:51:42.518Z,53.30
2023-02-27T07:52:42.803Z,53.43
2023-02-27T07:53:43.014Z,53.53
2023-02-27T07:54:43.442Z,53.51
2023-02-27T07:55:43.633Z,53.17
2023-02-27T07:56:44.059Z,52.88
2023-02-27T07:57:44.256Z,52.55
2023-02-27T07:58:44.512Z,52.65
2023-02-27T07:59:44.789Z,52.31
2023-02-27T08:00:45.085Z,52.34
2023-02-27T08:01:45.405Z,52.34
2023-02-27T08:02:45.688Z,52.42
2023-02-27T08:03:45.878Z,52.19
2023-02-27T08:04:46.173Z,51.57
2023-02-27T08:05:46.424Z,51.36
2023-02-27T08:06:46.743Z,51.23
2023-02-27T08:07:46.952Z,50.82
2023-02-27T08:08:47.193Z,50.82
2023-02-27T08:09:47.726Z,50.92
2023-02-27T08:10:47.886Z,51.05
2023-02-27T08:11:49.268Z,51.26
2023-02-27T08:12:48.320Z,51.46
2023-02-27T08:14:00.060Z,51.15
2023-02-27T08:14:49.864Z,51.46
2023-02-27T08:15:50.153Z,51.78
2023-02-27T08:16:49.419Z,51.65
2023-02-27T08:17:49.622Z,51.44
2023-02-27T08:18:49.913Z,51.13
2023-02-27T08:19:50.211Z,51.00
2023-02-27T08:20:55.089Z,50.79
2023-02-27T08:21:52.326Z,50.79
2023-02-27T08:22:51.087Z,50.90
2023-02-27T08:23:51.448Z,50.46
2023-02-27T08:24:51.525Z,50.15
2023-02-27T08:25:51.756Z,50.25
2023-02-27T08:26:52.055Z,50.15
2023-02-27T08:27:52.321Z,49.84
2023-02-27T08:28:52.597Z,49.52
2023-02-27T08:29:52.826Z,49.63
2023-02-27T08:30:53.211Z,49.71
2023-02-27T08:31:53.530Z,49.27
2023-02-27T08:32:54.635Z,48.96
2023-02-27T08:34:04.284Z,49.09
2023-02-27T08:34:56.705Z,48.86
2023-02-27T08:35:54.606Z,48.99
2023-02-27T08:36:54.858Z,49.19
2023-02-27T08:37:55.120Z,49.30
2023-02-27T08:38:55.402Z,49.27
2023-02-27T08:39:59.634Z,49.19
2023-02-27T08:40:55.927Z,49.40
2023-02-27T08:41:56.152Z,49.19
2023-02-27T08:42:56.365Z,49.30
2023-02-27T08:43:56.645Z,48.75
2023-02-27T08:44:57.358Z,48.34
2023-02-27T08:45:57.266Z,47.85
2023-02-27T08:46:57.503Z,47.97
2023-02-27T08:47:57.706Z,48.49
2023-02-27T08:48:58.082Z,48.36
2023-02-27T08:49:58.288Z,47.52
2023-02-27T08:50:58.636Z,47.41
2023-02-27T08:51:59.005Z,47.43
2023-02-27T08:52:59.196Z,47.64
2023-02-27T08:53:59.442Z,47.41
2023-02-27T08:54:59.772Z,47.52
2023-02-27T08:55:59.951Z,47.52
2023-02-27T08:57:00.214Z,46.97
2023-02-27T08:58:00.442Z,46.97
2023-02-27T08:59:00.872Z,46.87
2023-02-27T09:00:01.073Z,46.87
2023-02-27T09:01:01.276Z,46.77
2023-02-27T09:02:01.573Z,46.66
2023-02-27T09:03:01.883Z,46.66
2023-02-27T09:04:02.101Z,47.00
2023-02-27T09:05:02.493Z,46.97
2023-02-27T09:06:02.648Z,46.97
2023-02-27T09:07:03.093Z,46.56
2023-02-27T09:08:03.271Z,46.45
2023-02-27T09:09:03.680Z,46.56
2023-02-27T09:10:03.902Z,46.79
2023-02-27T09:11:04.167Z,46.69
2023-02-27T09:12:04.409Z,46.45
2023-02-27T09:13:04.683Z,46.48
2023-02-27T09:14:04.894Z,46.45
2023-02-27T09:15:05.301Z,46.45
2023-02-27T09:16:05.605Z,46.45
2023-02-27T09:17:05.802Z,46.25
2023-02-27T09:18:06.046Z,46.12
2023-02-27T09:19:06.263Z,45.71
2023-02-27T09:20:06.560Z,46.02
2023-02-27T09:21:06.791Z,45.81
2023-02-27T09:22:07.046Z,45.81
2023-02-27T09:23:07.349Z,45.90
2023-02-27T09:24:19.185Z,45.38
2023-02-27T09:25:08.933Z,45.07
2023-02-27T09:26:08.205Z,44.96
2023-02-27T09:27:08.461Z,44.84
2023-02-27T09:28:08.700Z,44.74
2023-02-27T09:29:08.991Z,44.74
2023-02-27T09:30:11.305Z,45.26
2023-02-27T09:31:09.451Z,45.15
2023-02-27T09:32:09.835Z,45.30
2023-02-27T09:33:09.999Z,45.42
2023-02-27T09:34:10.362Z,45.63
2023-02-27T09:35:16.396Z,45.63
2023-02-27T09:36:12.544Z,45.53
2023-02-27T09:37:11.022Z,45.32
2023-02-27T09:38:11.269Z,45.42
2023-02-27T09:39:11.544Z,45.53
2023-02-27T09:40:11.765Z,45.84
2023-02-27T09:41:12.070Z,45.81
2023-02-27T09:42:12.356Z,45.50
2023-02-27T09:43:12.663Z,45.09
2023-02-27T09:44:12.927Z,45.01
2023-02-27T09:45:13.182Z,45.30
2023-02-27T09:46:13.523Z,45.17
2023-02-27T09:47:14.633Z,45.01
2023-02-27T09:48:14.012Z,45.73
2023-02-27T09:49:14.264Z,45.96
2023-02-27T09:50:14.503Z,46.17
2023-02-27T09:51:14.931Z,45.94
2023-02-27T09:52:15.115Z,45.30
2023-02-27T09:53:15.545Z,45.09
2023-02-27T09:54:15.720Z,44.86
2023-02-27T09:55:16.095Z,44.56
2023-02-27T09:56:16.356Z,44.57
2023-02-27T09:57:16.683Z,44.89
2023-02-27T09:58:16.872Z,44.49
2023-02-27T09:59:17.286Z,44.59
2023-02-27T10:00:17.465Z,44.59
2023-02-27T10:01:18.042Z,44.90
2023-02-27T10:02:18.144Z,44.68
2023-02-27T10:03:18.492Z,44.59
2023-02-27T10:04:18.703Z,44.57
2023-02-27T10:05:23.998Z,44.57
2023-02-27T10:06:19.280Z,44.14
2023-02-27T10:07:19.599Z,44.22
2023-02-27T10:08:19.857Z,44.02
2023-02-27T10:09:20.203Z,44.12
2023-02-27T10:10:20.423Z,44.22
2023-02-27T10:11:20.794Z,44.02
2023-02-27T10:12:21.013Z,44.12
2023-02-27T10:13:21.315Z,44.32
2023-02-27T10:14:21.551Z,44.32
2023-02-27T10:15:21.796Z,44.31
2023-02-27T10:16:22.072Z,44.10
2023-02-27T10:17:22.394Z,43.56
2023-02-27T10:18:28.270Z,43.59
2023-02-27T10:19:23.927Z,43.81
2023-02-27T10:20:23.294Z,43.99
2023-02-27T10:21:23.438Z,43.89
2023-02-27T10:22:23.700Z,43.59
2023-02-27T10:23:23.971Z,43.56
2023-02-27T10:24:24.175Z,43.35
2023-02-27T10:25:31.681Z,43.23
2023-02-27T10:26:25.807Z,43.13
2023-02-27T10:27:25.475Z,43.44
2023-02-27T10:28:25.316Z,43.02
2023-02-27T10:29:25.598Z,42.80
2023-02-27T10:30:30.024Z,42.80
2023-02-27T10:31:27.593Z,42.39
2023-02-27T10:32:26.390Z,42.39
2023-02-27T10:33:28.263Z,42.29
2023-02-27T10:34:26.955Z,42.39
2023-02-27T10:35:27.279Z,42.20
2023-02-27T10:36:34.199Z,42.72
2023-02-27T10:37:28.756Z,42.18
2023-02-27T10:38:28.049Z,41.85
2023-02-27T10:39:28.364Z,40.80
2023-02-27T10:40:29.407Z,40.58
2023-02-27T10:41:29.208Z,40.45
2023-02-27T10:42:29.101Z,39.90
2023-02-27T10:43:29.668Z,39.37
2023-02-27T10:44:29.668Z,38.64
2023-02-27T10:45:29.876Z,38.12
2023-02-27T10:46:30.594Z,38.02
2023-02-27T10:47:30.469Z,38.22
2023-02-27T10:48:30.831Z,37.86
2023-02-27T10:49:32.830Z,37.26
2023-02-27T10:50:31.381Z,37.04
2023-02-27T10:51:31.681Z,37.04
2023-02-27T10:52:32.016Z,36.61
2023-02-27T10:53:32.359Z,36.30
2023-02-27T10:54:32.599Z,35.98
2023-02-27T10:55:32.898Z,35.23
2023-02-27T10:56:33.180Z,35.23
2023-02-27T10:57:33.437Z,35.01
2023-02-27T10:58:34.904Z,34.69
2023-02-27T10:59:33.986Z,34.04
2023-02-27T11:00:34.176Z,34.03
2023-02-27T11:01:34.498Z,33.81
2023-02-27T11:02:34.667Z,33.11
2023-02-27T11:03:34.941Z,33.31
2023-02-27T11:04:36.170Z,33.53
2023-02-27T11:05:35.409Z,33.29
2023-02-27T11:06:35.705Z,32.68
2023-02-27T11:07:35.993Z,32.58
2023-02-27T11:08:36.214Z,32.81
2023-02-27T11:09:36.478Z,32.93
2023-02-27T11:10:36.667Z,33.58
2023-02-27T11:11:36.998Z,33.97
2023-02-27T11:12:37.220Z,33.63
2023-02-27T11:13:37.486Z,33.44
2023-02-27T11:14:37.733Z,34.17
2023-02-27T11:15:38.092Z,34.06
2023-02-27T11:16:38.208Z,34.07
2023-02-27T11:17:38.479Z,33.70
2023-02-27T11:18:38.713Z,34.11
2023-02-27T11:19:39.189Z,33.75
2023-02-27T11:20:39.382Z,32.89
2023-02-27T11:21:39.671Z,32.36
2023-02-27T11:22:42.669Z,32.15
2023-02-27T11:23:40.917Z,31.85
2023-02-27T11:24:41.358Z,32.31
2023-02-27T11:25:40.895Z,32.90
2023-02-27T11:26:41.187Z,32.99
2023-02-27T11:27:41.481Z,32.70
2023-02-27T11:28:41.659Z,33.53
2023-02-27T11:29:41.936Z,32.58
2023-02-27T11:30:42.206Z,32.29
2023-02-27T11:31:42.475Z,33.25
2023-02-27T11:32:42.734Z,33.14
2023-02-27T11:33:42.968Z,32.83
2023-02-27T11:34:43.214Z,34.59
2023-02-27T11:35:43.533Z,35.19
2023-02-27T11:36:43.756Z,35.19
2023-02-27T11:37:44.004Z,35.47
2023-02-27T11:38:44.273Z,34.75
2023-02-27T11:39:44.504Z,35.98
2023-02-27T11:40:44.710Z,37.25
2023-02-27T11:41:45.056Z,37.32
2023-02-27T11:42:45.387Z,36.66
2023-02-27T11:43:45.816Z,35.89
2023-02-27T11:44:50.675Z,35.57
2023-02-27T11:46:04.844Z,35.04
2023-02-27T11:46:48.882Z,34.72
2023-02-27T11:47:46.903Z,34.48
2023-02-27T11:48:47.214Z,33.84
2023-02-27T11:49:48.367Z,33.09
2023-02-27T11:50:48.469Z,32.48
2023-02-27T11:51:48.086Z,32.07
2023-02-27T11:52:48.321Z,32.09
2023-02-27T11:53:48.725Z,32.39
2023-02-27T11:54:49.039Z,32.04
2023-02-27T11:55:49.294Z,30.52
2023-02-27T11:56:49.759Z,31.69
2023-02-27T11:57:49.793Z,31.90
2023-02-27T11:58:50.138Z,31.66
2023-02-27T11:59:50.405Z,31.25
2023-02-27T12:00:52.455Z,30.93
2023-02-27T12:01:50.842Z,30.83
2023-02-27T12:02:51.209Z,31.37
2023-02-27T12:03:51.481Z,32.43
2023-02-27T12:04:51.673Z,32.95
2023-02-27T12:05:51.963Z,32.73
2023-02-27T12:06:52.192Z,33.36
2023-02-27T12:07:54.258Z,33.65
2023-02-27T12:08:52.752Z,32.89
2023-02-27T12:09:53.154Z,32.15
2023-02-27T12:10:55.628Z,32.26
2023-02-27T12:11:54.685Z,31.92
2023-02-27T12:12:53.916Z,31.93
2023-02-27T12:13:54.323Z,31.92
2023-02-27T12:14:54.647Z,31.51
2023-02-27T12:15:54.901Z,32.29
2023-02-27T12:16:55.136Z,33.22
2023-02-27T12:17:55.393Z,33.31
2023-02-27T12:18:55.664Z,32.46
2023-02-27T12:19:55.887Z,32.15
2023-02-27T12:20:57.133Z,31.62
2023-02-27T12:21:56.430Z,31.41
2023-02-27T12:22:56.723Z,31.72
2023-02-27T12:23:56.930Z,31.72
2023-02-27T12:24:57.158Z,31.50
2023-02-27T12:25:57.511Z,31.28
2023-02-27T12:26:57.706Z,31.63
2023-02-27T12:27:57.960Z,31.84
2023-02-27T12:28:58.188Z,31.62
2023-02-27T12:29:58.514Z,32.17
2023-02-27T12:31:01.296Z,33.09
2023-02-27T12:31:59.097Z,32.80
2023-02-27T12:32:59.357Z,32.58
2023-02-27T12:33:59.618Z,32.58
2023-02-27T12:34:59.830Z,32.89
2023-02-27T12:36:00.613Z,32.77
2023-02-27T12:37:00.406Z,32.21
2023-02-27T12:38:00.672Z,31.47
2023-02-27T12:39:00.913Z,30.84
2023-02-27T12:40:01.186Z,31.18
2023-02-27T12:41:01.469Z,31.51
2023-02-27T12:42:01.712Z,32.50
2023-02-27T12:43:01.966Z,33.76
2023-02-27T12:44:02.216Z,34.62
2023-02-27T12:45:02.479Z,35.27
2023-02-27T12:46:02.780Z,36.77
2023-02-27T12:47:03.047Z,37.18
2023-02-27T12:48:03.325Z,36.82
2023-02-27T12:49:03.555Z,35.64
2023-02-27T12:50:03.796Z,34.80
2023-02-27T12:51:04.063Z,34.16
2023-02-27T12:52:04.320Z,34.38
2023-02-27T12:53:04.547Z,34.36
2023-02-27T12:54:04.836Z,33.94
2023-02-27T12:55:05.053Z,33.21
2023-02-27T12:56:05.436Z,33.18